sensor_id;sensor_type;location;lat;lon;timestamp;P1;durP1;ratioP1;P2;durP2;ratioP2
57327;SDS011;43162;51.040;18.244;2024-02-21T00:00:49;25.90;;;6.70;;
57327;SDS011;43162;51.040;18.244;2024-02-21T00:03:15;29.00;;;10.10;;
57327;SDS011;43162;51.040;18.244;2024-02-21T00:05:40;24.10;;;6.90;;
57327;SDS011;43162;51.040;18.244;2024-02-21T00:08:06;23.00;;;8.80;;
57327;SDS011;43162;51.040;18.244;2024-02-21T00:10:31;23.50;;;8.80;;
57327;SDS011;43162;51.040;18.244;2024-02-21T00:12:58;25.90;;;5.70;;
57327;SDS011;43162;51.040;18.244;2024-02-21T00:15:27;26.50;;;8.10;;
57327;SDS011;43162;51.040;18.244;2024-02-21T00:17:52;27.90;;;7.30;;
57327;SDS011;43162;51.040;18.244;2024-02-21T00:20:18;22.10;;;5.90;;
57327;SDS011;43162;51.040;18.244;2024-02-21T00:22:44;23.70;;;7.40;;
57327;SDS011;43162;51.040;18.244;2024-02-21T00:25:10;28.00;;;11.50;;
57327;SDS011;43162;51.040;18.244;2024-02-21T00:27:35;25.80;;;10.10;;
57327;SDS011;43162;51.040;18.244;2024-02-21T00:30:01;27.60;;;11.90;;
57327;SDS011;43162;51.040;18.244;2024-02-21T00:32:27;27.80;;;10.70;;
57327;SDS011;43162;51.040;18.244;2024-02-21T00:34:53;29.20;;;11.00;;
57327;SDS011;43162;51.040;18.244;2024-02-21T00:37:18;25.10;;;9.90;;
57327;SDS011;43162;51.040;18.244;2024-02-21T00:39:44;28.70;;;9.40;;
57327;SDS011;43162;51.040;18.244;2024-02-21T00:42:09;24.70;;;9.60;;
57327;SDS011;43162;51.040;18.244;2024-02-21T00:44:34;26.80;;;9.80;;
57327;SDS011;43162;51.040;18.244;2024-02-21T00:47:00;21.70;;;8.50;;
57327;SDS011;43162;51.040;18.244;2024-02-21T00:49:25;27.30;;;7.00;;
57327;SDS011;43162;51.040;18.244;2024-02-21T00:51:51;36.40;;;10.00;;
57327;SDS011;43162;51.040;18.244;2024-02-21T00:54:16;25.50;;;8.50;;
57327;SDS011;43162;51.040;18.244;2024-02-21T00:56:42;25.40;;;7.10;;
57327;SDS011;43162;51.040;18.244;2024-02-21T00:59:08;24.00;;;6.70;;
57327;SDS011;43162;51.040;18.244;2024-02-21T01:01:33;20.90;;;6.30;;
57327;SDS011;43162;51.040;18.244;2024-02-21T01:03:59;18.60;;;6.80;;
57327;SDS011;43162;51.040;18.244;2024-02-21T01:06:25;17.30;;;5.70;;
57327;SDS011;43162;51.040;18.244;2024-02-21T01:08:51;23.50;;;6.60;;
57327;SDS011;43162;51.040;18.244;2024-02-21T01:11:17;26.80;;;6.80;;
57327;SDS011;43162;51.040;18.244;2024-02-21T01:13:42;23.20;;;6.80;;
57327;SDS011;43162;51.040;18.244;2024-02-21T01:16:08;30.30;;;5.90;;
57327;SDS011;43162;51.040;18.244;2024-02-21T01:18:33;20.10;;;5.30;;
57327;SDS011;43162;51.040;18.244;2024-02-21T01:21:00;27.60;;;6.00;;
57327;SDS011;43162;51.040;18.244;2024-02-21T01:23:25;16.70;;;5.10;;
57327;SDS011;43162;51.040;18.244;2024-02-21T01:25:51;27.70;;;6.20;;
57327;SDS011;43162;51.040;18.244;2024-02-21T01:28:17;18.90;;;5.10;;
57327;SDS011;43162;51.040;18.244;2024-02-21T01:30:43;20.80;;;5.80;;
57327;SDS011;43162;51.040;18.244;2024-02-21T01:33:09;22.90;;;5.40;;
57327;SDS011;43162;51.040;18.244;2024-02-21T01:35:35;24.80;;;7.00;;
57327;SDS011;43162;51.040;18.244;2024-02-21T01:38:02;13.30;;;5.20;;
57327;SDS011;43162;51.040;18.244;2024-02-21T01:40:27;24.90;;;5.00;;
57327;SDS011;43162;51.040;18.244;2024-02-21T01:42:54;21.10;;;5.70;;
57327;SDS011;43162;51.040;18.244;2024-02-21T01:45:20;20.00;;;5.00;;
57327;SDS011;43162;51.040;18.244;2024-02-21T01:47:46;18.10;;;5.00;;
57327;SDS011;43162;51.040;18.244;2024-02-21T01:50:12;20.20;;;5.70;;
57327;SDS011;43162;51.040;18.244;2024-02-21T01:52:40;19.20;;;4.70;;
57327;SDS011;43162;51.040;18.244;2024-02-21T01:55:06;15.00;;;4.50;;
57327;SDS011;43162;51.040;18.244;2024-02-21T01:57:33;16.70;;;4.90;;
57327;SDS011;43162;51.040;18.244;2024-02-21T01:59:59;23.00;;;5.10;;
57327;SDS011;43162;51.040;18.244;2024-02-21T02:02:24;23.40;;;6.60;;
57327;SDS011;43162;51.040;18.244;2024-02-21T02:04:50;21.40;;;6.10;;
57327;SDS011;43162;51.040;18.244;2024-02-21T02:07:15;20.80;;;6.30;;
57327;SDS011;43162;51.040;18.244;2024-02-21T02:09:41;17.80;;;7.30;;
57327;SDS011;43162;51.040;18.244;2024-02-21T02:12:07;20.90;;;4.80;;
57327;SDS011;43162;51.040;18.244;2024-02-21T02:14:33;18.60;;;4.80;;
57327;SDS011;43162;51.040;18.244;2024-02-21T02:16:59;24.30;;;5.60;;
57327;SDS011;43162;51.040;18.244;2024-02-21T02:19:24;18.20;;;5.50;;
57327;SDS011;43162;51.040;18.244;2024-02-21T02:21:50;21.50;;;7.10;;
57327;SDS011;43162;51.040;18.244;2024-02-21T02:24:19;17.30;;;6.50;;
57327;SDS011;43162;51.040;18.244;2024-02-21T02:26:45;18.80;;;6.10;;
57327;SDS011;43162;51.040;18.244;2024-02-21T02:29:10;26.30;;;7.70;;
57327;SDS011;43162;51.040;18.244;2024-02-21T02:31:36;20.90;;;5.50;;
57327;SDS011;43162;51.040;18.244;2024-02-21T02:34:03;21.00;;;6.00;;
57327;SDS011;43162;51.040;18.244;2024-02-21T02:36:30;21.80;;;5.80;;
57327;SDS011;43162;51.040;18.244;2024-02-21T02:38:58;20.10;;;6.00;;
57327;SDS011;43162;51.040;18.244;2024-02-21T02:41:24;14.10;;;4.30;;
57327;SDS011;43162;51.040;18.244;2024-02-21T02:43:50;19.70;;;5.10;;
57327;SDS011;43162;51.040;18.244;2024-02-21T02:46:15;18.30;;;6.40;;
57327;SDS011;43162;51.040;18.244;2024-02-21T02:48:41;20.30;;;6.80;;
57327;SDS011;43162;51.040;18.244;2024-02-21T02:51:07;17.40;;;6.30;;
57327;SDS011;43162;51.040;18.244;2024-02-21T02:53:32;25.30;;;7.70;;
57327;SDS011;43162;51.040;18.244;2024-02-21T02:55:58;45.70;;;12.50;;
57327;SDS011;43162;51.040;18.244;2024-02-21T02:58:23;36.40;;;10.80;;
57327;SDS011;43162;51.040;18.244;2024-02-21T03:00:49;19.90;;;7.50;;
57327;SDS011;43162;51.040;18.244;2024-02-21T03:03:14;20.30;;;6.50;;
57327;SDS011;43162;51.040;18.244;2024-02-21T03:05:39;27.90;;;7.80;;
57327;SDS011;43162;51.040;18.244;2024-02-21T03:08:05;22.80;;;9.00;;
57327;SDS011;43162;51.040;18.244;2024-02-21T03:10:35;21.70;;;6.90;;
57327;SDS011;43162;51.040;18.244;2024-02-21T03:13:00;27.20;;;11.80;;
57327;SDS011;43162;51.040;18.244;2024-02-21T03:15:26;20.70;;;8.80;;
57327;SDS011;43162;51.040;18.244;2024-02-21T03:17:51;24.30;;;7.60;;
57327;SDS011;43162;51.040;18.244;2024-02-21T03:20:17;21.30;;;7.30;;
57327;SDS011;43162;51.040;18.244;2024-02-21T03:22:44;23.80;;;8.40;;
57327;SDS011;43162;51.040;18.244;2024-02-21T03:25:10;25.00;;;9.10;;
57327;SDS011;43162;51.040;18.244;2024-02-21T03:27:37;27.20;;;10.30;;
57327;SDS011;43162;51.040;18.244;2024-02-21T03:30:04;28.10;;;11.20;;
57327;SDS011;43162;51.040;18.244;2024-02-21T03:32:30;20.40;;;8.90;;
57327;SDS011;43162;51.040;18.244;2024-02-21T03:34:56;23.80;;;10.10;;
57327;SDS011;43162;51.040;18.244;2024-02-21T03:37:21;16.20;;;8.10;;
57327;SDS011;43162;51.040;18.244;2024-02-21T03:39:47;20.80;;;8.20;;
57327;SDS011;43162;51.040;18.244;2024-02-21T03:42:12;23.20;;;7.70;;
57327;SDS011;43162;51.040;18.244;2024-02-21T03:44:38;18.80;;;7.40;;
57327;SDS011;43162;51.040;18.244;2024-02-21T03:47:04;17.50;;;7.00;;
57327;SDS011;43162;51.040;18.244;2024-02-21T03:49:29;22.20;;;6.10;;
57327;SDS011;43162;51.040;18.244;2024-02-21T03:51:55;19.60;;;7.00;;
57327;SDS011;43162;51.040;18.244;2024-02-21T03:54:22;19.20;;;5.90;;
57327;SDS011;43162;51.040;18.244;2024-02-21T03:56:47;17.90;;;5.50;;
57327;SDS011;43162;51.040;18.244;2024-02-21T03:59:14;16.80;;;5.40;;
57327;SDS011;43162;51.040;18.244;2024-02-21T04:01:40;17.10;;;6.00;;
57327;SDS011;43162;51.040;18.244;2024-02-21T04:04:05;15.10;;;5.70;;
57327;SDS011;43162;51.040;18.244;2024-02-21T04:06:31;18.60;;;5.60;;
57327;SDS011;43162;51.040;18.244;2024-02-21T04:08:56;15.00;;;7.40;;
57327;SDS011;43162;51.040;18.244;2024-02-21T04:11:22;13.20;;;6.30;;
57327;SDS011;43162;51.040;18.244;2024-02-21T04:13:47;18.90;;;5.70;;
57327;SDS011;43162;51.040;18.244;2024-02-21T04:16:15;21.30;;;7.50;;
57327;SDS011;43162;51.040;18.244;2024-02-21T04:18:41;27.30;;;7.20;;
57327;SDS011;43162;51.040;18.244;2024-02-21T04:21:08;17.70;;;5.80;;
57327;SDS011;43162;51.040;18.244;2024-02-21T04:23:34;17.50;;;6.60;;
57327;SDS011;43162;51.040;18.244;2024-02-21T04:26:00;19.40;;;6.50;;
57327;SDS011;43162;51.040;18.244;2024-02-21T04:28:25;19.50;;;6.40;;
57327;SDS011;43162;51.040;18.244;2024-02-21T04:30:51;23.30;;;8.40;;
57327;SDS011;43162;51.040;18.244;2024-02-21T04:33:16;16.80;;;6.80;;
57327;SDS011;43162;51.040;18.244;2024-02-21T04:35:42;20.50;;;5.90;;
57327;SDS011;43162;51.040;18.244;2024-02-21T04:38:07;19.10;;;6.00;;
57327;SDS011;43162;51.040;18.244;2024-02-21T04:40:33;20.50;;;5.80;;
57327;SDS011;43162;51.040;18.244;2024-02-21T04:42:59;17.50;;;5.90;;
57327;SDS011;43162;51.040;18.244;2024-02-21T04:45:24;19.10;;;6.20;;
57327;SDS011;43162;51.040;18.244;2024-02-21T04:47:50;16.30;;;6.80;;
57327;SDS011;43162;51.040;18.244;2024-02-21T04:50:16;22.20;;;6.30;;
57327;SDS011;43162;51.040;18.244;2024-02-21T04:52:41;13.00;;;7.80;;
57327;SDS011;43162;51.040;18.244;2024-02-21T04:55:08;19.90;;;10.20;;
57327;SDS011;43162;51.040;18.244;2024-02-21T04:57:33;25.30;;;11.20;;
57327;SDS011;43162;51.040;18.244;2024-02-21T04:59:59;29.70;;;9.90;;
57327;SDS011;43162;51.040;18.244;2024-02-21T05:02:24;24.50;;;9.10;;
57327;SDS011;43162;51.040;18.244;2024-02-21T05:04:52;23.50;;;10.20;;
57327;SDS011;43162;51.040;18.244;2024-02-21T05:07:18;27.80;;;13.60;;
57327;SDS011;43162;51.040;18.244;2024-02-21T05:09:44;27.30;;;11.30;;
57327;SDS011;43162;51.040;18.244;2024-02-21T05:12:11;23.20;;;10.80;;
57327;SDS011;43162;51.040;18.244;2024-02-21T05:14:37;14.80;;;7.40;;
57327;SDS011;43162;51.040;18.244;2024-02-21T05:17:03;20.50;;;9.00;;
57327;SDS011;43162;51.040;18.244;2024-02-21T05:19:29;27.60;;;8.10;;
57327;SDS011;43162;51.040;18.244;2024-02-21T05:21:55;27.30;;;8.40;;
57327;SDS011;43162;51.040;18.244;2024-02-21T05:24:20;15.00;;;6.90;;
57327;SDS011;43162;51.040;18.244;2024-02-21T05:26:46;16.50;;;6.50;;
57327;SDS011;43162;51.040;18.244;2024-02-21T05:29:11;19.60;;;6.90;;
57327;SDS011;43162;51.040;18.244;2024-02-21T05:34:32;22.20;;;9.10;;
57327;SDS011;43162;51.040;18.244;2024-02-21T05:36:57;21.50;;;8.70;;
57327;SDS011;43162;51.040;18.244;2024-02-21T05:39:25;24.10;;;9.80;;
57327;SDS011;43162;51.040;18.244;2024-02-21T05:41:50;20.50;;;9.30;;
57327;SDS011;43162;51.040;18.244;2024-02-21T05:44:16;17.00;;;7.00;;
57327;SDS011;43162;51.040;18.244;2024-02-21T05:46:42;18.30;;;7.50;;
57327;SDS011;43162;51.040;18.244;2024-02-21T05:49:07;18.40;;;7.80;;
57327;SDS011;43162;51.040;18.244;2024-02-21T05:51:33;15.70;;;7.70;;
57327;SDS011;43162;51.040;18.244;2024-02-21T05:53:59;18.20;;;10.80;;
57327;SDS011;43162;51.040;18.244;2024-02-21T05:56:25;22.30;;;9.10;;
57327;SDS011;43162;51.040;18.244;2024-02-21T05:58:50;22.40;;;9.20;;
57327;SDS011;43162;51.040;18.244;2024-02-21T06:01:16;19.80;;;7.10;;
57327;SDS011;43162;51.040;18.244;2024-02-21T06:03:43;23.30;;;7.80;;
57327;SDS011;43162;51.040;18.244;2024-02-21T06:06:09;28.90;;;10.50;;
57327;SDS011;43162;51.040;18.244;2024-02-21T06:08:34;13.80;;;8.50;;
57327;SDS011;43162;51.040;18.244;2024-02-21T06:11:00;15.70;;;8.60;;
57327;SDS011;43162;51.040;18.244;2024-02-21T06:13:26;24.20;;;10.20;;
57327;SDS011;43162;51.040;18.244;2024-02-21T06:15:52;20.30;;;9.50;;
57327;SDS011;43162;51.040;18.244;2024-02-21T06:18:17;18.70;;;8.80;;
57327;SDS011;43162;51.040;18.244;2024-02-21T06:20:43;20.40;;;7.30;;
57327;SDS011;43162;51.040;18.244;2024-02-21T06:23:09;19.30;;;7.90;;
57327;SDS011;43162;51.040;18.244;2024-02-21T06:25:34;22.90;;;8.30;;
57327;SDS011;43162;51.040;18.244;2024-02-21T06:28:00;18.40;;;6.90;;
57327;SDS011;43162;51.040;18.244;2024-02-21T06:30:26;14.80;;;7.80;;
57327;SDS011;43162;51.040;18.244;2024-02-21T06:32:52;24.50;;;8.70;;
57327;SDS011;43162;51.040;18.244;2024-02-21T06:35:17;15.20;;;7.70;;
57327;SDS011;43162;51.040;18.244;2024-02-21T06:37:44;20.90;;;10.10;;
57327;SDS011;43162;51.040;18.244;2024-02-21T06:40:15;16.90;;;8.40;;
57327;SDS011;43162;51.040;18.244;2024-02-21T06:42:41;16.90;;;7.40;;
57327;SDS011;43162;51.040;18.244;2024-02-21T06:45:07;20.70;;;7.30;;
57327;SDS011;43162;51.040;18.244;2024-02-21T06:47:32;13.70;;;7.00;;
57327;SDS011;43162;51.040;18.244;2024-02-21T06:49:58;21.40;;;7.30;;
57327;SDS011;43162;51.040;18.244;2024-02-21T06:52:24;21.20;;;8.60;;
57327;SDS011;43162;51.040;18.244;2024-02-21T06:54:50;15.60;;;7.00;;
57327;SDS011;43162;51.040;18.244;2024-02-21T06:57:15;18.00;;;8.30;;
57327;SDS011;43162;51.040;18.244;2024-02-21T06:59:41;22.40;;;7.70;;
57327;SDS011;43162;51.040;18.244;2024-02-21T07:02:07;14.60;;;7.10;;
57327;SDS011;43162;51.040;18.244;2024-02-21T07:04:33;27.30;;;8.40;;
57327;SDS011;43162;51.040;18.244;2024-02-21T07:06:58;16.50;;;7.50;;
57327;SDS011;43162;51.040;18.244;2024-02-21T07:09:24;22.10;;;7.70;;
57327;SDS011;43162;51.040;18.244;2024-02-21T07:11:49;23.30;;;7.90;;
57327;SDS011;43162;51.040;18.244;2024-02-21T07:14:15;27.90;;;9.70;;
57327;SDS011;43162;51.040;18.244;2024-02-21T07:16:40;18.30;;;8.50;;
57327;SDS011;43162;51.040;18.244;2024-02-21T07:19:06;19.40;;;8.20;;
57327;SDS011;43162;51.040;18.244;2024-02-21T07:21:32;16.80;;;7.40;;
57327;SDS011;43162;51.040;18.244;2024-02-21T07:23:57;17.90;;;8.50;;
57327;SDS011;43162;51.040;18.244;2024-02-21T07:26:23;26.30;;;7.80;;
57327;SDS011;43162;51.040;18.244;2024-02-21T07:28:48;17.50;;;6.70;;
57327;SDS011;43162;51.040;18.244;2024-02-21T07:31:14;19.80;;;7.60;;
57327;SDS011;43162;51.040;18.244;2024-02-21T07:33:39;17.20;;;7.30;;
57327;SDS011;43162;51.040;18.244;2024-02-21T07:36:06;17.40;;;7.60;;
57327;SDS011;43162;51.040;18.244;2024-02-21T07:38:33;13.90;;;6.70;;
57327;SDS011;43162;51.040;18.244;2024-02-21T07:40:59;22.40;;;8.40;;
57327;SDS011;43162;51.040;18.244;2024-02-21T07:43:24;18.50;;;8.10;;
57327;SDS011;43162;51.040;18.244;2024-02-21T07:45:51;20.40;;;7.80;;
57327;SDS011;43162;51.040;18.244;2024-02-21T07:48:18;23.90;;;8.00;;
57327;SDS011;43162;51.040;18.244;2024-02-21T07:50:45;16.40;;;6.70;;
57327;SDS011;43162;51.040;18.244;2024-02-21T07:53:11;20.60;;;8.20;;
57327;SDS011;43162;51.040;18.244;2024-02-21T07:55:36;14.50;;;7.80;;
57327;SDS011;43162;51.040;18.244;2024-02-21T07:58:02;21.30;;;7.40;;
57327;SDS011;43162;51.040;18.244;2024-02-21T08:00:27;10.80;;;5.60;;
57327;SDS011;43162;51.040;18.244;2024-02-21T08:02:52;15.90;;;7.20;;
57327;SDS011;43162;51.040;18.244;2024-02-21T08:05:18;21.60;;;8.60;;
57327;SDS011;43162;51.040;18.244;2024-02-21T08:07:43;22.40;;;7.80;;
57327;SDS011;43162;51.040;18.244;2024-02-21T08:10:09;22.50;;;7.70;;
57327;SDS011;43162;51.040;18.244;2024-02-21T08:12:35;17.30;;;8.40;;
57327;SDS011;43162;51.040;18.244;2024-02-21T08:15:01;16.00;;;6.70;;
57327;SDS011;43162;51.040;18.244;2024-02-21T08:17:28;15.80;;;6.20;;
57327;SDS011;43162;51.040;18.244;2024-02-21T08:19:54;21.80;;;7.00;;
57327;SDS011;43162;51.040;18.244;2024-02-21T08:22:19;21.30;;;8.30;;
57327;SDS011;43162;51.040;18.244;2024-02-21T08:24:45;18.90;;;7.10;;
57327;SDS011;43162;51.040;18.244;2024-02-21T08:27:10;18.10;;;6.70;;
57327;SDS011;43162;51.040;18.244;2024-02-21T08:29:36;13.80;;;6.30;;
57327;SDS011;43162;51.040;18.244;2024-02-21T08:32:01;17.40;;;6.00;;
57327;SDS011;43162;51.040;18.244;2024-02-21T08:34:27;20.80;;;6.00;;
57327;SDS011;43162;51.040;18.244;2024-02-21T08:36:54;16.30;;;5.50;;
57327;SDS011;43162;51.040;18.244;2024-02-21T08:39:20;17.40;;;5.70;;
57327;SDS011;43162;51.040;18.244;2024-02-21T08:41:46;15.30;;;7.20;;
57327;SDS011;43162;51.040;18.244;2024-02-21T08:44:12;17.60;;;7.00;;
57327;SDS011;43162;51.040;18.244;2024-02-21T08:46:37;15.90;;;5.80;;
57327;SDS011;43162;51.040;18.244;2024-02-21T08:49:05;18.50;;;6.60;;
57327;SDS011;43162;51.040;18.244;2024-02-21T08:51:31;14.00;;;5.60;;
57327;SDS011;43162;51.040;18.244;2024-02-21T08:53:57;21.30;;;7.00;;
57327;SDS011;43162;51.040;18.244;2024-02-21T08:56:23;19.70;;;7.30;;
57327;SDS011;43162;51.040;18.244;2024-02-21T08:58:49;15.90;;;5.90;;
57327;SDS011;43162;51.040;18.244;2024-02-21T09:01:15;18.10;;;5.80;;
57327;SDS011;43162;51.040;18.244;2024-02-21T09:03:40;19.20;;;6.30;;
57327;SDS011;43162;51.040;18.244;2024-02-21T09:06:06;14.60;;;6.30;;
57327;SDS011;43162;51.040;18.244;2024-02-21T09:08:32;15.30;;;7.10;;
57327;SDS011;43162;51.040;18.244;2024-02-21T09:10:59;17.70;;;6.40;;
57327;SDS011;43162;51.040;18.244;2024-02-21T09:13:26;14.20;;;6.10;;
57327;SDS011;43162;51.040;18.244;2024-02-21T09:15:52;18.90;;;7.50;;
57327;SDS011;43162;51.040;18.244;2024-02-21T09:18:17;14.70;;;6.80;;
57327;SDS011;43162;51.040;18.244;2024-02-21T09:20:43;15.40;;;6.60;;
57327;SDS011;43162;51.040;18.244;2024-02-21T09:23:09;14.10;;;6.70;;
57327;SDS011;43162;51.040;18.244;2024-02-21T09:25:34;16.50;;;6.70;;
57327;SDS011;43162;51.040;18.244;2024-02-21T09:28:01;21.60;;;9.00;;
57327;SDS011;43162;51.040;18.244;2024-02-21T09:30:27;18.00;;;6.80;;
57327;SDS011;43162;51.040;18.244;2024-02-21T09:32:52;14.40;;;6.60;;
57327;SDS011;43162;51.040;18.244;2024-02-21T09:35:18;16.70;;;6.70;;
57327;SDS011;43162;51.040;18.244;2024-02-21T09:37:44;20.30;;;7.50;;
57327;SDS011;43162;51.040;18.244;2024-02-21T09:40:10;21.40;;;7.90;;
57327;SDS011;43162;51.040;18.244;2024-02-21T09:42:39;17.30;;;6.40;;
57327;SDS011;43162;51.040;18.244;2024-02-21T09:45:27;13.90;;;5.40;;
57327;SDS011;43162;51.040;18.244;2024-02-21T09:48:02;16.50;;;5.20;;
57327;SDS011;43162;51.040;18.244;2024-02-21T09:50:31;12.60;;;4.30;;
57327;SDS011;43162;51.040;18.244;2024-02-21T09:52:57;14.70;;;4.40;;
57327;SDS011;43162;51.040;18.244;2024-02-21T09:55:24;14.50;;;4.00;;
57327;SDS011;43162;51.040;18.244;2024-02-21T09:57:51;17.90;;;5.30;;
57327;SDS011;43162;51.040;18.244;2024-02-21T10:00:16;16.90;;;5.80;;
57327;SDS011;43162;51.040;18.244;2024-02-21T10:02:49;16.90;;;5.70;;
57327;SDS011;43162;51.040;18.244;2024-02-21T10:05:16;16.50;;;5.30;;
57327;SDS011;43162;51.040;18.244;2024-02-21T10:07:43;15.90;;;4.70;;
57327;SDS011;43162;51.040;18.244;2024-02-21T10:10:09;19.80;;;5.10;;
57327;SDS011;43162;51.040;18.244;2024-02-21T10:12:34;18.20;;;5.20;;
57327;SDS011;43162;51.040;18.244;2024-02-21T10:15:04;16.80;;;5.30;;
57327;SDS011;43162;51.040;18.244;2024-02-21T10:17:34;15.20;;;4.50;;
57327;SDS011;43162;51.040;18.244;2024-02-21T10:20:09;13.30;;;5.50;;
57327;SDS011;43162;51.040;18.244;2024-02-21T10:22:37;15.30;;;5.50;;
57327;SDS011;43162;51.040;18.244;2024-02-21T10:25:13;15.90;;;4.90;;
57327;SDS011;43162;51.040;18.244;2024-02-21T10:27:39;18.50;;;5.40;;
57327;SDS011;43162;51.040;18.244;2024-02-21T10:30:12;18.50;;;5.30;;
57327;SDS011;43162;51.040;18.244;2024-02-21T10:32:49;16.80;;;5.30;;
57327;SDS011;43162;51.040;18.244;2024-02-21T10:35:27;16.00;;;5.30;;
57327;SDS011;43162;51.040;18.244;2024-02-21T10:37:56;14.40;;;5.40;;
57327;SDS011;43162;51.040;18.244;2024-02-21T10:40:25;15.70;;;5.10;;
57327;SDS011;43162;51.040;18.244;2024-02-21T10:42:56;20.70;;;5.50;;
57327;SDS011;43162;51.040;18.244;2024-02-21T10:45:31;15.00;;;6.20;;
57327;SDS011;43162;51.040;18.244;2024-02-21T10:48:13;26.50;;;7.30;;
57327;SDS011;43162;51.040;18.244;2024-02-21T10:53:20;13.40;;;5.20;;
57327;SDS011;43162;51.040;18.244;2024-02-21T10:55:56;21.30;;;6.50;;
57327;SDS011;43162;51.040;18.244;2024-02-21T10:58:26;17.20;;;6.00;;
57327;SDS011;43162;51.040;18.244;2024-02-21T11:00:53;19.20;;;5.60;;
57327;SDS011;43162;51.040;18.244;2024-02-21T11:03:19;18.30;;;6.40;;
57327;SDS011;43162;51.040;18.244;2024-02-21T11:05:45;22.20;;;7.30;;
57327;SDS011;43162;51.040;18.244;2024-02-21T11:08:11;15.00;;;6.80;;
57327;SDS011;43162;51.040;18.244;2024-02-21T11:10:37;17.10;;;6.10;;
57327;SDS011;43162;51.040;18.244;2024-02-21T11:13:09;18.80;;;6.80;;
57327;SDS011;43162;51.040;18.244;2024-02-21T11:15:35;17.50;;;5.60;;
57327;SDS011;43162;51.040;18.244;2024-02-21T11:18:00;21.60;;;6.90;;
57327;SDS011;43162;51.040;18.244;2024-02-21T11:20:35;17.80;;;6.60;;
57327;SDS011;43162;51.040;18.244;2024-02-21T11:23:02;15.20;;;6.40;;
57327;SDS011;43162;51.040;18.244;2024-02-21T11:25:28;18.70;;;6.70;;
57327;SDS011;43162;51.040;18.244;2024-02-21T11:28:02;10.90;;;6.10;;
57327;SDS011;43162;51.040;18.244;2024-02-21T11:30:32;22.20;;;7.50;;
57327;SDS011;43162;51.040;18.244;2024-02-21T11:35:33;14.00;;;6.10;;
57327;SDS011;43162;51.040;18.244;2024-02-21T11:40:43;16.00;;;7.00;;
57327;SDS011;43162;51.040;18.244;2024-02-21T11:43:10;14.40;;;6.40;;
57327;SDS011;43162;51.040;18.244;2024-02-21T11:45:35;15.40;;;6.10;;
57327;SDS011;43162;51.040;18.244;2024-02-21T11:48:01;16.90;;;7.70;;
57327;SDS011;43162;51.040;18.244;2024-02-21T11:50:28;24.00;;;8.60;;
57327;SDS011;43162;51.040;18.244;2024-02-21T11:52:55;21.90;;;8.10;;
57327;SDS011;43162;51.040;18.244;2024-02-21T11:55:21;19.00;;;7.30;;
57327;SDS011;43162;51.040;18.244;2024-02-21T11:57:47;12.70;;;6.60;;
57327;SDS011;43162;51.040;18.244;2024-02-21T12:00:16;18.90;;;7.10;;
57327;SDS011;43162;51.040;18.244;2024-02-21T12:02:45;14.70;;;6.20;;
57327;SDS011;43162;51.040;18.244;2024-02-21T12:05:11;16.10;;;7.00;;
57327;SDS011;43162;51.040;18.244;2024-02-21T12:07:37;16.80;;;6.80;;
57327;SDS011;43162;51.040;18.244;2024-02-21T12:10:12;22.30;;;6.50;;
57327;SDS011;43162;51.040;18.244;2024-02-21T12:12:39;20.10;;;7.20;;
57327;SDS011;43162;51.040;18.244;2024-02-21T12:15:05;18.70;;;7.50;;
57327;SDS011;43162;51.040;18.244;2024-02-21T12:17:39;21.60;;;7.50;;
57327;SDS011;43162;51.040;18.244;2024-02-21T12:20:05;24.10;;;6.50;;
57327;SDS011;43162;51.040;18.244;2024-02-21T12:22:43;16.60;;;7.00;;
57327;SDS011;43162;51.040;18.244;2024-02-21T12:25:18;18.80;;;7.40;;
57327;SDS011;43162;51.040;18.244;2024-02-21T12:27:45;23.30;;;8.90;;
57327;SDS011;43162;51.040;18.244;2024-02-21T12:30:12;19.30;;;8.30;;
57327;SDS011;43162;51.040;18.244;2024-02-21T12:32:37;16.50;;;7.10;;
57327;SDS011;43162;51.040;18.244;2024-02-21T12:35:03;23.70;;;7.90;;
57327;SDS011;43162;51.040;18.244;2024-02-21T12:37:29;18.70;;;9.00;;
57327;SDS011;43162;51.040;18.244;2024-02-21T12:39:54;18.80;;;9.00;;
57327;SDS011;43162;51.040;18.244;2024-02-21T12:42:20;23.20;;;9.00;;
57327;SDS011;43162;51.040;18.244;2024-02-21T12:44:48;24.90;;;7.10;;
57327;SDS011;43162;51.040;18.244;2024-02-21T12:47:15;21.20;;;7.30;;
57327;SDS011;43162;51.040;18.244;2024-02-21T12:49:40;18.00;;;7.10;;
57327;SDS011;43162;51.040;18.244;2024-02-21T12:52:06;14.70;;;7.60;;
57327;SDS011;43162;51.040;18.244;2024-02-21T12:54:32;15.00;;;6.90;;
57327;SDS011;43162;51.040;18.244;2024-02-21T12:56:58;16.80;;;8.20;;
57327;SDS011;43162;51.040;18.244;2024-02-21T12:59:29;16.00;;;7.80;;
57327;SDS011;43162;51.040;18.244;2024-02-21T13:01:55;26.00;;;9.90;;
57327;SDS011;43162;51.040;18.244;2024-02-21T13:04:21;23.10;;;8.80;;
57327;SDS011;43162;51.040;18.244;2024-02-21T13:06:49;19.70;;;8.10;;
57327;SDS011;43162;51.040;18.244;2024-02-21T13:09:14;25.20;;;10.70;;
57327;SDS011;43162;51.040;18.244;2024-02-21T13:11:41;32.00;;;9.30;;
57327;SDS011;43162;51.040;18.244;2024-02-21T13:14:07;26.40;;;10.70;;
57327;SDS011;43162;51.040;18.244;2024-02-21T13:16:33;25.60;;;12.90;;
57327;SDS011;43162;51.040;18.244;2024-02-21T13:19:05;25.10;;;11.20;;
57327;SDS011;43162;51.040;18.244;2024-02-21T13:21:31;28.60;;;12.20;;
57327;SDS011;43162;51.040;18.244;2024-02-21T13:23:56;27.00;;;10.60;;
57327;SDS011;43162;51.040;18.244;2024-02-21T13:26:22;21.50;;;9.10;;
57327;SDS011;43162;51.040;18.244;2024-02-21T13:28:48;21.80;;;9.50;;
57327;SDS011;43162;51.040;18.244;2024-02-21T13:31:14;22.40;;;10.20;;
57327;SDS011;43162;51.040;18.244;2024-02-21T13:33:41;29.40;;;11.20;;
57327;SDS011;43162;51.040;18.244;2024-02-21T13:36:09;23.90;;;11.50;;
57327;SDS011;43162;51.040;18.244;2024-02-21T13:38:35;24.30;;;10.30;;
57327;SDS011;43162;51.040;18.244;2024-02-21T13:41:01;24.60;;;11.60;;
57327;SDS011;43162;51.040;18.244;2024-02-21T13:43:26;24.10;;;9.60;;
57327;SDS011;43162;51.040;18.244;2024-02-21T13:45:59;24.70;;;11.00;;
57327;SDS011;43162;51.040;18.244;2024-02-21T13:48:25;19.40;;;9.30;;
57327;SDS011;43162;51.040;18.244;2024-02-21T13:50:52;23.60;;;10.80;;
57327;SDS011;43162;51.040;18.244;2024-02-21T13:53:17;21.80;;;10.60;;
57327;SDS011;43162;51.040;18.244;2024-02-21T13:55:46;24.10;;;9.80;;
57327;SDS011;43162;51.040;18.244;2024-02-21T13:58:13;24.50;;;10.40;;
57327;SDS011;43162;51.040;18.244;2024-02-21T14:00:39;27.50;;;10.30;;
57327;SDS011;43162;51.040;18.244;2024-02-21T14:03:04;22.40;;;10.20;;
57327;SDS011;43162;51.040;18.244;2024-02-21T14:05:30;19.10;;;10.60;;
57327;SDS011;43162;51.040;18.244;2024-02-21T14:07:55;22.90;;;10.70;;
57327;SDS011;43162;51.040;18.244;2024-02-21T14:10:22;27.40;;;11.70;;
57327;SDS011;43162;51.040;18.244;2024-02-21T14:12:48;24.10;;;9.40;;
57327;SDS011;43162;51.040;18.244;2024-02-21T14:15:14;22.60;;;13.10;;
57327;SDS011;43162;51.040;18.244;2024-02-21T14:17:40;32.10;;;16.40;;
57327;SDS011;43162;51.040;18.244;2024-02-21T14:20:07;19.50;;;10.90;;
57327;SDS011;43162;51.040;18.244;2024-02-21T14:22:33;19.40;;;10.70;;
57327;SDS011;43162;51.040;18.244;2024-02-21T14:24:59;19.60;;;10.20;;
57327;SDS011;43162;51.040;18.244;2024-02-21T14:27:25;31.80;;;17.20;;